CYED/YED METAR and TAF weather

Enter ICAO airport designator
Station Type Date Time Source
CYED METAR 2022/11/30 03:07 UTC NOAA

CYED 300307Z 02006KT 9SM -SN OVC025 M18/M20 A3018 RMK SC8 DENSITY ALT -2007FT LAST OBS /NEXT 301400 UTC SLP281


Station Type Date Time Source
CYED Decoded METAR 2022/11/30 03:07 UTC NOAA

Edmonton Namao Alta., Canada (CYED) 53-40N 113-28W 688M
Nov 29, 2022 - 10:07 PM EST / 2022.11.30 0307 UTC
Wind: from the NNE (020 degrees) at 7 MPH (6 KT):0
Visibility: 9 mile(s):0
Sky conditions: overcast
Weather: light snow
Temperature: 0 F (-18 C)
Windchill: -13 F (-25 C):2
Dew Point: -4 F (-20 C)
Relative Humidity: 84%
Pressure (altimeter): 30.18 in. Hg (1022 hPa)
ob: CYED 300307Z 02006KT 9SM -SN OVC025 M18/M20 A3018 RMK SC8 DENSITY ALT -2007FT LAST OBS /NEXT 301400 UTC SLP281
cycle: 3

Station Type Date Time Source
CYED TAF 2022/11/30 00:12 UTC NOAA

TAF
AMD TAF
AMD CYED 300309Z 3000/3012 CNL
RMK END OF FLY PROGRAM. NXT FCST BY 300600

Example: see airport list